Time;durP1;ratioP1;P1;durP2;ratioP2;P2;SDS_P1;SDS_P2;PMS_P1;PMS_P2;Temp;Humidity;BMP_temperature;BMP_pressure;BME280_temperature;BME280_humidity;BME280_pressure;Samples;Min_cycle;Max_cycle;Signal;HPM_P1;HPM_P2
2024/01/29 00:02:14;;;;;;;10.13;7.90;;;;;;;-146.29;100.00;59205.81;5086205;28;20555;-71
2024/01/29 00:04:39;;;;;;;10.60;7.30;;;;;;;-146.29;100.00;59205.81;5095948;28;20200;-68
2024/01/29 00:07:05;;;;;;;9.13;7.50;;;;;;;-146.29;100.00;59205.81;5091577;28;20616;-68
2024/01/29 00:09:30;;;;;;;10.63;7.03;;;;;;;-146.29;100.00;59205.81;5085972;28;20684;-69
2024/01/29 00:11:56;;;;;;;11.63;6.80;;;;;;;-146.29;100.00;59205.81;5083783;28;20296;-69
2024/01/29 00:14:21;;;;;;;9.53;7.50;;;;;;;-146.29;100.00;59205.81;5093149;28;20182;-68
2024/01/29 00:16:47;;;;;;;9.80;7.27;;;;;;;-146.29;100.00;59205.81;5091168;28;20218;-67
2024/01/29 00:19:13;;;;;;;10.73;7.50;;;;;;;-146.29;100.00;59205.81;5092620;28;20726;-68
2024/01/29 00:21:39;;;;;;;10.57;7.03;;;;;;;-146.29;100.00;59205.81;5090464;28;20197;-68
2024/01/29 00:24:04;;;;;;;8.97;7.00;;;;;;;-146.29;100.00;59205.81;5089509;28;20419;-68
2024/01/29 00:26:30;;;;;;;13.00;7.73;;;;;;;-146.29;100.00;59205.81;5087109;28;20182;-68
2024/01/29 00:28:55;;;;;;;9.10;6.97;;;;;;;-146.29;100.00;59205.81;5087609;28;20302;-69
2024/01/29 00:31:24;;;;;;;12.27;7.70;;;;;;;-146.29;100.00;59205.81;5084149;28;20690;-68
2024/01/29 00:33:52;;;;;;;12.67;8.30;;;;;;;-146.29;100.00;59205.81;5080759;28;20178;-70
2024/01/29 00:36:17;;;;;;;10.87;7.70;;;;;;;-146.29;100.00;59205.81;5084070;28;20451;-68
2024/01/29 00:38:43;;;;;;;11.07;7.30;;;;;;;-146.29;100.00;59205.81;5070149;28;20455;-67
2024/01/29 00:41:09;;;;;;;9.77;7.10;;;;;;;-146.29;100.00;59205.81;5104002;28;20211;-69
2024/01/29 00:43:34;;;;;;;10.77;7.80;;;;;;;-146.29;100.00;59205.81;5087365;28;20365;-69
2024/01/29 00:46:00;;;;;;;10.10;7.50;;;;;;;-146.29;100.00;59205.81;5064735;28;20210;-69
2024/01/29 00:48:25;;;;;;;11.53;6.87;;;;;;;-146.29;100.00;59205.81;5076183;28;20188;-69
2024/01/29 00:50:51;;;;;;;10.40;6.77;;;;;;;-146.29;100.00;59205.81;5096168;28;20217;-70
2024/01/29 00:53:17;;;;;;;9.20;7.60;;;;;;;-146.29;100.00;59205.81;5083419;28;20559;-69
2024/01/29 00:55:45;;;;;;;13.73;7.13;;;;;;;-146.29;100.00;59205.81;5027526;28;20507;-68
2024/01/29 00:58:11;;;;;;;9.67;7.20;;;;;;;-146.29;100.00;59205.81;5091089;28;20748;-69
2024/01/29 01:00:38;;;;;;;7.77;6.70;;;;;;;-146.29;100.00;59205.81;5081472;28;20527;-68
2024/01/29 01:03:05;;;;;;;9.97;7.10;;;;;;;-146.29;100.00;59205.81;5092049;28;20427;-68
2024/01/29 01:05:30;;;;;;;10.33;6.80;;;;;;;-146.29;100.00;59205.81;5086876;28;20427;-67
2024/01/29 01:07:56;;;;;;;8.13;5.93;;;;;;;-146.29;100.00;59205.81;5094476;28;20419;-67
2024/01/29 01:10:22;;;;;;;7.73;6.00;;;;;;;-146.29;100.00;59205.81;5073638;28;20977;-70
2024/01/29 01:12:47;;;;;;;9.50;6.80;;;;;;;-146.29;100.00;59205.81;5087895;28;20181;-69
2024/01/29 01:15:13;;;;;;;7.87;6.60;;;;;;;-146.29;100.00;59205.81;5062387;28;20211;-68
2024/01/29 01:17:39;;;;;;;10.00;5.67;;;;;;;-146.29;100.00;59205.81;5089590;28;20205;-70
2024/01/29 01:20:06;;;;;;;7.87;5.63;;;;;;;-146.29;100.00;59205.81;5084956;28;20288;-69
2024/01/29 01:22:31;;;;;;;8.70;5.73;;;;;;;-146.29;100.00;59205.81;5090004;28;21085;-67
2024/01/29 01:24:57;;;;;;;10.00;6.27;;;;;;;-146.29;100.00;59205.81;5079547;28;20456;-68
2024/01/29 01:27:22;;;;;;;6.90;5.23;;;;;;;-146.29;100.00;59205.81;5092467;28;20185;-68
2024/01/29 01:29:47;;;;;;;7.60;5.37;;;;;;;-146.29;100.00;59205.81;5074693;28;20233;-66
2024/01/29 01:32:13;;;;;;;9.60;6.20;;;;;;;-146.29;100.00;59205.81;5075703;28;20236;-69
2024/01/29 01:34:38;;;;;;;9.03;5.83;;;;;;;-146.29;100.00;59205.81;5084290;28;20297;-67
2024/01/29 01:37:04;;;;;;;8.30;5.43;;;;;;;-146.29;100.00;59205.81;5082652;28;20208;-70
2024/01/29 01:39:29;;;;;;;8.37;5.90;;;;;;;-146.29;100.00;59205.81;5067262;28;20791;-69
2024/01/29 01:41:55;;;;;;;9.30;5.80;;;;;;;-146.29;100.00;59205.81;5075366;28;20232;-69
2024/01/29 01:44:20;;;;;;;6.10;4.80;;;;;;;-146.29;100.00;59205.81;5078558;28;20247;-70
2024/01/29 01:46:46;;;;;;;7.43;5.70;;;;;;;-146.29;100.00;59205.81;5064505;28;20177;-70
2024/01/29 01:49:11;;;;;;;6.03;5.13;;;;;;;-146.29;100.00;59205.81;5082107;28;20661;-69
2024/01/29 01:51:37;;;;;;;7.53;5.40;;;;;;;-146.29;100.00;59205.81;5088282;28;20210;-69
2024/01/29 01:54:03;;;;;;;7.90;5.70;;;;;;;-146.29;100.00;59205.81;5072476;28;20741;-71
2024/01/29 01:56:30;;;;;;;7.57;5.60;;;;;;;-146.29;100.00;59205.81;5093815;28;20820;-69
2024/01/29 01:58:57;;;;;;;6.60;5.10;;;;;;;-146.29;100.00;59205.81;5090266;28;20518;-67
2024/01/29 02:01:22;;;;;;;4.77;3.73;;;;;;;-146.29;100.00;59205.81;5091907;28;20803;-68
2024/01/29 02:03:48;;;;;;;6.83;4.90;;;;;;;-146.29;100.00;59205.81;5099160;28;20464;-68
2024/01/29 02:06:13;;;;;;;5.90;4.70;;;;;;;-146.29;100.00;59205.81;5088183;28;20179;-67
2024/01/29 02:08:39;;;;;;;6.50;5.00;;;;;;;-146.29;100.00;59205.81;5079053;28;20272;-67
2024/01/29 02:11:05;;;;;;;7.70;4.60;;;;;;;-146.29;100.00;59205.81;5098565;28;20251;-68
2024/01/29 02:13:31;;;;;;;5.63;4.83;;;;;;;-146.29;100.00;59205.81;5089527;28;20561;-67
2024/01/29 02:15:56;;;;;;;6.20;4.43;;;;;;;-146.29;100.00;59205.81;5094959;28;20197;-68
2024/01/29 02:18:22;;;;;;;7.60;5.13;;;;;;;-146.29;100.00;59205.81;5098997;28;20463;-67
2024/01/29 02:20:47;;;;;;;5.80;5.10;;;;;;;-146.29;100.00;59205.81;5087108;28;20284;-69
2024/01/29 02:23:13;;;;;;;7.13;4.97;;;;;;;-146.29;100.00;59205.81;5069165;28;20181;-69
2024/01/29 02:25:38;;;;;;;9.03;5.10;;;;;;;-146.29;100.00;59205.81;5082978;28;20193;-69
2024/01/29 02:28:04;;;;;;;5.47;4.97;;;;;;;-146.29;100.00;59205.81;5090074;28;20178;-68
2024/01/29 02:30:29;;;;;;;6.07;4.90;;;;;;;-146.29;100.00;59205.81;5090842;28;20212;-68
2024/01/29 02:32:54;;;;;;;6.73;4.80;;;;;;;-146.29;100.00;59205.81;5097288;28;20214;-69
2024/01/29 02:35:20;;;;;;;6.57;5.10;;;;;;;-146.29;100.00;59205.81;5084077;28;20243;-69
2024/01/29 02:37:45;;;;;;;6.93;4.63;;;;;;;-146.29;100.00;59205.81;5082200;28;20217;-70
2024/01/29 02:40:11;;;;;;;5.73;4.50;;;;;;;-146.29;100.00;59205.81;5089057;28;20209;-69
2024/01/29 02:42:37;;;;;;;8.30;4.50;;;;;;;-146.29;100.00;59205.81;5091842;28;20658;-68
2024/01/29 02:45:04;;;;;;;5.67;4.87;;;;;;;-146.29;100.00;59205.81;5089925;28;20613;-68
2024/01/29 02:47:29;;;;;;;5.77;5.00;;;;;;;-146.29;100.00;59205.81;5068353;28;20755;-68
2024/01/29 02:49:55;;;;;;;5.97;4.43;;;;;;;-146.29;100.00;59205.81;5095467;28;20420;-67
2024/01/29 02:52:20;;;;;;;5.20;4.70;;;;;;;-146.29;100.00;59205.81;5089978;28;20265;-68
2024/01/29 02:54:47;;;;;;;6.10;4.70;;;;;;;-146.29;100.00;59205.81;5096648;28;20180;-68
2024/01/29 02:57:12;;;;;;;4.40;4.00;;;;;;;-146.29;100.00;59205.81;5077574;28;20545;-68
2024/01/29 02:59:37;;;;;;;5.70;4.67;;;;;;;-146.29;100.00;59205.81;5089254;28;20424;-68
2024/01/29 03:02:03;;;;;;;4.43;4.03;;;;;;;-146.29;100.00;59205.81;5054482;28;20273;-67
2024/01/29 03:04:29;;;;;;;6.60;4.90;;;;;;;-146.29;100.00;59205.81;5082833;28;20661;-69
2024/01/29 03:06:54;;;;;;;5.57;4.50;;;;;;;-146.29;100.00;59205.81;5052259;28;20494;-68
2024/01/29 03:09:20;;;;;;;7.67;4.80;;;;;;;-146.29;100.00;59205.81;5100220;28;20184;-68
2024/01/29 03:11:45;;;;;;;5.00;4.37;;;;;;;-146.29;100.00;59205.81;5092562;28;20583;-68
2024/01/29 03:14:11;;;;;;;6.03;4.43;;;;;;;-146.29;100.00;59205.81;5089364;28;20182;-69
2024/01/29 03:16:36;;;;;;;5.97;4.27;;;;;;;-146.29;100.00;59205.81;5068666;28;20202;-69
2024/01/29 03:19:02;;;;;;;5.57;4.70;;;;;;;-146.29;100.00;59205.81;5082269;28;20264;-68
2024/01/29 03:21:28;;;;;;;11.80;4.40;;;;;;;-146.29;100.00;59205.81;5083775;28;20263;-69
2024/01/29 03:23:56;;;;;;;5.70;4.50;;;;;;;-146.29;100.00;59205.81;5089004;28;20268;-70
2024/01/29 03:26:22;;;;;;;5.43;4.20;;;;;;;-146.29;100.00;59205.81;5093099;28;20181;-68
2024/01/29 03:28:48;;;;;;;4.40;4.00;;;;;;;-146.29;100.00;59205.81;5075217;28;20479;-69
2024/01/29 03:31:13;;;;;;;5.27;4.20;;;;;;;-146.29;100.00;59205.81;5101392;28;20453;-67
2024/01/29 03:33:39;;;;;;;4.80;4.00;;;;;;;-146.29;100.00;59205.81;5085981;28;20583;-69
2024/01/29 03:36:05;;;;;;;6.10;4.93;;;;;;;-146.29;100.00;59205.81;5094062;28;20229;-69
2024/01/29 03:38:32;;;;;;;4.70;4.20;;;;;;;-146.29;100.00;59205.81;5093348;28;20263;-69
2024/01/29 03:40:58;;;;;;;7.70;4.87;;;;;;;-146.29;100.00;59205.81;5100282;28;20451;-70
2024/01/29 03:43:23;;;;;;;4.33;3.87;;;;;;;-146.29;100.00;59205.81;5089593;28;20446;-68
2024/01/29 03:45:48;;;;;;;6.23;4.83;;;;;;;-146.29;100.00;59205.81;5092054;28;20181;-69
2024/01/29 03:48:14;;;;;;;8.20;4.97;;;;;;;-146.29;100.00;59205.81;5090184;28;20177;-68
2024/01/29 03:50:39;;;;;;;5.60;4.53;;;;;;;-146.29;100.00;59205.81;5075802;28;20299;-68
2024/01/29 03:53:05;;;;;;;7.87;4.30;;;;;;;-146.29;100.00;59205.81;5095386;28;20209;-67
2024/01/29 03:55:30;;;;;;;6.20;4.27;;;;;;;-146.29;100.00;59205.81;5088206;28;20272;-68
2024/01/29 03:57:56;;;;;;;5.03;4.00;;;;;;;-146.29;100.00;59205.81;5073993;28;20197;-68
2024/01/29 04:00:23;;;;;;;4.80;3.73;;;;;;;-146.29;100.00;59205.81;5090017;28;20198;-69
2024/01/29 04:02:49;;;;;;;5.03;4.33;;;;;;;-146.29;100.00;59205.81;5066152;28;20271;-69
2024/01/29 04:05:16;;;;;;;6.90;3.93;;;;;;;-146.29;100.00;59205.81;5094291;28;20787;-67
2024/01/29 04:07:41;;;;;;;5.43;3.73;;;;;;;-146.29;100.00;59205.81;5091843;28;20901;-70
2024/01/29 04:10:07;;;;;;;4.63;4.10;;;;;;;-146.29;100.00;59205.81;5083036;28;20584;-68
2024/01/29 04:12:33;;;;;;;6.57;4.00;;;;;;;-146.29;100.00;59205.81;5080457;28;20846;-68
2024/01/29 04:14:58;;;;;;;4.53;3.93;;;;;;;-146.29;100.00;59205.81;5066420;28;20205;-68
2024/01/29 04:17:24;;;;;;;4.70;4.13;;;;;;;-146.29;100.00;59205.81;5078088;28;20218;-68
2024/01/29 04:19:49;;;;;;;4.67;3.97;;;;;;;-146.29;100.00;59205.81;5094330;28;20185;-68
2024/01/29 04:22:14;;;;;;;4.97;3.73;;;;;;;-146.29;100.00;59205.81;5063023;28;20643;-68
2024/01/29 04:24:40;;;;;;;6.17;4.17;;;;;;;-146.29;100.00;59205.81;5082906;28;20273;-68
2024/01/29 04:27:05;;;;;;;4.27;3.87;;;;;;;-146.29;100.00;59205.81;5064031;28;20261;-68
2024/01/29 04:29:31;;;;;;;5.07;3.50;;;;;;;-146.29;100.00;59205.81;5081891;28;20265;-67
2024/01/29 04:31:56;;;;;;;5.77;4.23;;;;;;;-146.29;100.00;59205.81;5059238;28;20196;-68
2024/01/29 04:34:22;;;;;;;5.50;4.00;;;;;;;-146.29;100.00;59205.81;5084692;28;20180;-68
2024/01/29 04:36:47;;;;;;;5.47;4.10;;;;;;;-146.29;100.00;59205.81;5082673;28;20221;-67
2024/01/29 04:39:13;;;;;;;5.00;4.00;;;;;;;-146.29;100.00;59205.81;5076293;28;20173;-68
2024/01/29 04:41:38;;;;;;;4.80;3.60;;;;;;;-146.29;100.00;59205.81;5065262;28;20205;-68
2024/01/29 04:44:04;;;;;;;6.30;4.17;;;;;;;-146.29;100.00;59205.81;5087815;28;20593;-67
2024/01/29 04:46:30;;;;;;;5.53;4.03;;;;;;;-146.29;100.00;59205.81;5081263;28;20214;-68
2024/01/29 04:48:55;;;;;;;4.97;3.40;;;;;;;-146.29;100.00;59205.81;5085382;28;20186;-69
2024/01/29 04:51:21;;;;;;;4.90;4.00;;;;;;;-146.29;100.00;59205.81;5093892;28;20488;-68
2024/01/29 04:53:46;;;;;;;4.80;3.73;;;;;;;-146.29;100.00;59205.81;5069866;28;20185;-70
2024/01/29 04:56:12;;;;;;;7.60;3.80;;;;;;;-146.29;100.00;59205.81;5080536;28;20434;-70
2024/01/29 04:58:38;;;;;;;5.33;4.10;;;;;;;-146.29;100.00;59205.81;5085602;28;20284;-69
2024/01/29 05:01:03;;;;;;;6.50;4.30;;;;;;;-146.29;100.00;59205.81;5079387;28;20205;-70
2024/01/29 05:03:29;;;;;;;8.23;5.60;;;;;;;-146.29;100.00;59205.81;5082003;28;20186;-70
2024/01/29 05:05:55;;;;;;;9.03;6.00;;;;;;;-146.29;100.00;59205.81;5070307;28;20213;-70
2024/01/29 05:08:20;;;;;;;8.27;6.00;;;;;;;-146.29;100.00;59205.81;5081516;28;20265;-68
2024/01/29 05:10:46;;;;;;;6.93;5.80;;;;;;;-146.29;100.00;59205.81;5061390;28;20674;-69
2024/01/29 05:13:12;;;;;;;8.20;6.20;;;;;;;-146.29;100.00;59205.81;5052848;28;20303;-69
2024/01/29 05:15:37;;;;;;;7.97;5.50;;;;;;;-146.29;100.00;59205.81;5048279;28;20194;-70
2024/01/29 05:18:03;;;;;;;9.47;6.60;;;;;;;-146.29;100.00;59205.81;5075237;28;20208;-71
2024/01/29 05:20:29;;;;;;;10.47;7.53;;;;;;;-146.29;100.00;59205.81;5077577;28;20229;-69
2024/01/29 05:22:55;;;;;;;10.60;8.70;;;;;;;-146.29;100.00;59205.81;5083935;28;20197;-69
2024/01/29 05:25:21;;;;;;;12.20;8.17;;;;;;;-146.29;100.00;59205.81;5065583;28;20508;-68
2024/01/29 05:27:46;;;;;;;12.17;8.80;;;;;;;-146.29;100.00;59205.81;5079986;28;20185;-67
2024/01/29 05:30:12;;;;;;;12.23;9.17;;;;;;;-146.29;100.00;59205.81;5053462;28;20288;-68
2024/01/29 05:32:37;;;;;;;13.50;9.20;;;;;;;-146.29;100.00;59205.81;5086177;28;20182;-69
2024/01/29 05:35:03;;;;;;;12.03;8.63;;;;;;;-146.29;100.00;59205.81;5080929;28;20609;-68
2024/01/29 05:37:31;;;;;;;12.23;9.10;;;;;;;-146.29;100.00;59205.81;5084682;28;20277;-68
2024/01/29 05:39:57;;;;;;;13.40;8.50;;;;;;;-146.29;100.00;59205.81;5074401;28;20420;-68
2024/01/29 05:42:22;;;;;;;12.10;8.63;;;;;;;-146.29;100.00;59205.81;5082908;28;20488;-70
2024/01/29 05:44:48;;;;;;;11.90;8.40;;;;;;;-146.29;100.00;59205.81;5085316;28;20188;-69
2024/01/29 05:47:13;;;;;;;12.77;8.70;;;;;;;-146.29;100.00;59205.81;5080808;28;20242;-66
2024/01/29 05:49:39;;;;;;;14.97;9.53;;;;;;;-146.29;100.00;59205.81;5094320;28;20193;-69
2024/01/29 05:52:05;;;;;;;13.10;8.97;;;;;;;-146.29;100.00;59205.81;5073712;28;20204;-69
2024/01/29 05:54:30;;;;;;;11.70;8.73;;;;;;;-146.29;100.00;59205.81;5064345;28;20421;-68
2024/01/29 05:56:57;;;;;;;12.07;8.63;;;;;;;-146.29;100.00;59205.81;5092102;28;20296;-68
2024/01/29 05:59:22;;;;;;;12.50;8.77;;;;;;;-146.29;100.00;59205.81;5088761;28;20250;-67
2024/01/29 06:01:48;;;;;;;11.33;8.30;;;;;;;-146.29;100.00;59205.81;5086885;28;20447;-70
2024/01/29 06:04:13;;;;;;;11.20;7.90;;;;;;;-146.29;100.00;59205.81;5075975;28;20261;-67
2024/01/29 06:06:41;;;;;;;10.77;7.83;;;;;;;-146.29;100.00;59205.81;5062820;28;20182;-69
2024/01/29 06:09:07;;;;;;;10.33;8.17;;;;;;;-146.29;100.00;59205.81;5055529;28;20202;-68
2024/01/29 06:11:32;;;;;;;10.80;8.33;;;;;;;-146.29;100.00;59205.81;5088980;28;20511;-68
2024/01/29 06:13:59;;;;;;;12.97;9.30;;;;;;;-146.29;100.00;59205.81;5059380;28;20197;-68
2024/01/29 06:16:25;;;;;;;12.67;8.80;;;;;;;-146.29;100.00;59205.81;5076642;28;20273;-69
2024/01/29 06:18:50;;;;;;;13.93;8.70;;;;;;;-146.29;100.00;59205.81;5065958;28;20620;-69
2024/01/29 06:21:16;;;;;;;11.20;9.27;;;;;;;-146.29;100.00;59205.81;5080519;28;20202;-68
2024/01/29 06:23:42;;;;;;;13.87;10.00;;;;;;;-146.29;100.00;59205.81;5082916;28;20201;-68
2024/01/29 06:26:07;;;;;;;14.43;10.00;;;;;;;-146.29;100.00;59205.81;5077534;28;20204;-67
2024/01/29 06:28:33;;;;;;;10.70;8.53;;;;;;;-146.29;100.00;59205.81;5089409;28;20600;-67
2024/01/29 06:30:58;;;;;;;15.70;9.00;;;;;;;-146.29;100.00;59205.81;5092173;28;20282;-67
2024/01/29 06:33:24;;;;;;;13.63;9.47;;;;;;;-146.29;100.00;59205.81;5080318;28;20183;-68
2024/01/29 06:35:50;;;;;;;13.77;9.70;;;;;;;-146.29;100.00;59205.81;5090518;28;20190;-69
2024/01/29 06:38:15;;;;;;;23.20;9.57;;;;;;;-146.29;100.00;59205.81;5082474;28;20459;-67
2024/01/29 06:40:41;;;;;;;16.90;10.40;;;;;;;-146.29;100.00;59205.81;5080599;28;20252;-67
2024/01/29 06:43:07;;;;;;;12.20;9.53;;;;;;;-146.29;100.00;59205.81;5081156;28;20662;-68
2024/01/29 06:45:32;;;;;;;14.43;10.10;;;;;;;-146.29;100.00;59205.81;5096098;28;20426;-69
2024/01/29 06:47:58;;;;;;;12.37;9.60;;;;;;;-146.29;100.00;59205.81;5085337;28;20183;-67
2024/01/29 06:50:23;;;;;;;14.37;11.20;;;;;;;-146.29;100.00;59205.81;5086283;28;20248;-69
2024/01/29 06:52:49;;;;;;;16.67;11.13;;;;;;;-146.29;100.00;59205.81;5089513;28;20264;-69
2024/01/29 06:55:15;;;;;;;18.83;11.60;;;;;;;-146.29;100.00;59205.81;5078145;28;20209;-69
2024/01/29 06:57:40;;;;;;;19.37;11.20;;;;;;;-146.29;100.00;59205.81;5088172;28;20221;-66
2024/01/29 07:00:06;;;;;;;17.63;10.60;;;;;;;-146.29;100.00;59205.81;5096995;28;20650;-67
2024/01/29 07:02:32;;;;;;;15.97;11.00;;;;;;;-146.29;100.00;59205.81;5089434;28;20685;-67
2024/01/29 07:04:57;;;;;;;15.23;10.53;;;;;;;-146.29;100.00;59205.81;5091887;28;20557;-67
2024/01/29 07:07:23;;;;;;;14.47;10.80;;;;;;;-146.29;100.00;59205.81;5094859;28;20193;-66
2024/01/29 07:09:53;;;;;;;19.00;10.90;;;;;;;-146.29;100.00;59205.81;5099253;28;20188;-66
2024/01/29 07:12:18;;;;;;;18.40;11.07;;;;;;;-146.29;100.00;59205.81;5099662;28;20174;-66
2024/01/29 07:14:43;;;;;;;13.10;10.10;;;;;;;-146.29;100.00;59205.81;5068827;28;20435;-68
2024/01/29 07:17:09;;;;;;;17.57;10.60;;;;;;;-146.29;100.00;59205.81;5090903;28;20484;-66
2024/01/29 07:19:35;;;;;;;16.63;11.00;;;;;;;-146.29;100.00;59205.81;5096611;28;20193;-67
2024/01/29 07:22:04;;;;;;;13.40;10.43;;;;;;;-146.29;100.00;59205.81;5083759;28;20193;-66
2024/01/29 07:24:31;;;;;;;14.60;11.20;;;;;;;-146.29;100.00;59205.81;5083724;28;20230;-67
2024/01/29 07:26:58;;;;;;;16.93;11.20;;;;;;;-146.29;100.00;59205.81;5090053;28;20423;-68
2024/01/29 07:29:25;;;;;;;16.47;11.20;;;;;;;-146.29;100.00;59205.81;5094945;28;20996;-69
2024/01/29 07:31:52;;;;;;;15.20;11.07;;;;;;;-146.29;100.00;59205.81;5091809;28;20452;-68
2024/01/29 07:34:18;;;;;;;12.77;9.67;;;;;;;-146.29;100.00;59205.81;5095560;28;20491;-67
2024/01/29 07:36:43;;;;;;;16.07;10.37;;;;;;;-146.29;100.00;59205.81;5091880;28;20427;-67
2024/01/29 07:39:12;;;;;;;17.50;10.60;;;;;;;-146.29;100.00;59205.81;5090006;28;20189;-67
2024/01/29 07:41:38;;;;;;;15.30;9.63;;;;;;;-146.29;100.00;59205.81;5086943;28;20305;-67
2024/01/29 07:44:03;;;;;;;14.67;10.47;;;;;;;-146.29;100.00;59205.81;5069573;28;20419;-69
2024/01/29 07:46:29;;;;;;;13.90;9.97;;;;;;;-146.29;100.00;59205.81;5089157;28;20178;-67
2024/01/29 07:48:55;;;;;;;16.60;9.27;;;;;;;-146.29;100.00;59205.81;5096923;28;20269;-68
2024/01/29 07:51:20;;;;;;;19.93;10.10;;;;;;;-146.29;100.00;59205.81;5093894;28;20205;-69
2024/01/29 07:53:45;;;;;;;18.20;10.70;;;;;;;-146.29;100.00;59205.81;5086776;28;20871;-68
2024/01/29 07:56:11;;;;;;;15.50;11.30;;;;;;;-146.29;100.00;59205.81;5094436;28;20272;-69
2024/01/29 07:58:37;;;;;;;14.80;10.03;;;;;;;-146.29;100.00;59205.81;5088487;28;20200;-68
2024/01/29 08:01:02;;;;;;;16.40;10.60;;;;;;;-146.29;100.00;59205.81;5093668;28;20205;-68
2024/01/29 08:03:27;;;;;;;20.63;10.90;;;;;;;-146.29;100.00;59205.81;5099858;28;20197;-67
2024/01/29 08:05:53;;;;;;;14.87;10.10;;;;;;;-146.29;100.00;59205.81;5098414;28;20216;-66
2024/01/29 08:08:18;;;;;;;14.10;10.63;;;;;;;-146.29;100.00;59205.81;5097124;28;20245;-70
2024/01/29 08:10:44;;;;;;;21.33;10.87;;;;;;;-146.29;100.00;59205.81;5092850;28;20284;-69
2024/01/29 08:13:10;;;;;;;15.33;10.90;;;;;;;-146.29;100.00;59205.81;5087225;28;20659;-67
2024/01/29 08:15:35;;;;;;;17.30;10.60;;;;;;;-146.29;100.00;59205.81;5088082;28;20189;-69
2024/01/29 08:18:01;;;;;;;16.77;10.10;;;;;;;-146.29;100.00;59205.81;5084019;28;20246;-68
2024/01/29 08:20:27;;;;;;;11.33;9.40;;;;;;;-146.29;100.00;59205.81;5085013;28;20232;-70
2024/01/29 08:22:52;;;;;;;14.17;9.93;;;;;;;-146.29;100.00;59205.81;5085923;28;20207;-68
2024/01/29 08:25:21;;;;;;;13.43;10.10;;;;;;;-146.29;100.00;59205.81;5082701;28;20268;-68
2024/01/29 08:27:46;;;;;;;16.47;10.43;;;;;;;-146.29;100.00;59205.81;5086802;28;20180;-69
2024/01/29 08:30:12;;;;;;;15.27;10.73;;;;;;;-146.29;100.00;59205.81;5086095;28;20441;-68
2024/01/29 08:32:37;;;;;;;16.77;11.07;;;;;;;-146.29;100.00;59205.81;5082103;28;20186;-68
2024/01/29 08:35:04;;;;;;;15.50;10.77;;;;;;;-146.29;100.00;59205.81;5084384;28;20494;-68
2024/01/29 08:37:29;;;;;;;15.13;10.07;;;;;;;-146.29;100.00;59205.81;5089640;28;20198;-67
2024/01/29 08:39:54;;;;;;;16.07;10.77;;;;;;;-146.29;100.00;59205.81;5095558;28;20431;-68
2024/01/29 08:42:20;;;;;;;15.90;10.33;;;;;;;-146.29;100.00;59205.81;5059656;28;20202;-69
2024/01/29 08:44:46;;;;;;;13.50;8.83;;;;;;;-146.29;100.00;59205.81;5082494;28;20178;-68
2024/01/29 08:47:11;;;;;;;14.03;10.67;;;;;;;-146.29;100.00;59205.81;5083630;28;20178;-69
2024/01/29 08:49:36;;;;;;;14.63;10.50;;;;;;;-146.29;100.00;59205.81;5078304;28;20710;-68
2024/01/29 08:52:02;;;;;;;12.83;9.67;;;;;;;-146.29;100.00;59205.81;5084477;28;20288;-68
2024/01/29 08:54:28;;;;;;;16.03;9.73;;;;;;;-146.29;100.00;59205.81;5069047;28;20185;-68
2024/01/29 08:56:53;;;;;;;16.70;10.00;;;;;;;-146.29;100.00;59205.81;5068344;28;20194;-68
2024/01/29 08:59:19;;;;;;;18.03;10.30;;;;;;;-146.29;100.00;59205.81;5088992;28;20225;-69
2024/01/29 09:01:45;;;;;;;15.77;9.83;;;;;;;-146.29;100.00;59205.81;5096936;28;20205;-69
2024/01/29 09:04:10;;;;;;;12.80;9.90;;;;;;;-146.29;100.00;59205.81;5079057;28;20194;-68
2024/01/29 09:06:36;;;;;;;16.33;9.93;;;;;;;-146.29;100.00;59205.81;5075365;28;20257;-69
2024/01/29 09:09:02;;;;;;;18.20;10.57;;;;;;;-146.29;100.00;59205.81;5077876;28;20223;-69
2024/01/29 09:11:27;;;;;;;13.30;10.27;;;;;;;-146.29;100.00;59205.81;5096955;28;20206;-69
2024/01/29 09:13:53;;;;;;;13.10;9.37;;;;;;;-146.29;100.00;59205.81;5093043;28;20767;-69
2024/01/29 09:16:18;;;;;;;15.20;9.93;;;;;;;-146.29;100.00;59205.81;5061936;28;1079231;-69
2024/01/29 09:18:44;;;;;;;13.10;10.00;;;;;;;-146.29;100.00;59205.81;5111403;28;20218;-68
2024/01/29 09:21:09;;;;;;;17.13;11.37;;;;;;;-146.29;100.00;59205.81;5091005;28;20240;-71
2024/01/29 09:23:36;;;;;;;14.00;9.10;;;;;;;-146.29;100.00;59205.81;5096006;28;20174;-73
2024/01/29 09:26:02;;;;;;;10.10;8.63;;;;;;;-146.29;100.00;59205.81;5080894;28;20703;-70
2024/01/29 09:28:28;;;;;;;11.83;8.90;;;;;;;-146.29;100.00;59205.81;5065759;28;20419;-71
2024/01/29 09:30:53;;;;;;;20.10;9.93;;;;;;;-146.29;100.00;59205.81;5081681;28;20240;-71
2024/01/29 09:33:19;;;;;;;13.63;8.93;;;;;;;-146.29;100.00;59205.81;5083279;28;20185;-70
2024/01/29 09:35:46;;;;;;;15.57;9.40;;;;;;;-146.29;100.00;59205.81;5082272;28;20193;-70
2024/01/29 09:38:13;;;;;;;16.03;9.63;;;;;;;-146.29;100.00;59205.81;5089037;28;20551;-71
2024/01/29 09:40:39;;;;;;;14.63;9.87;;;;;;;-146.29;100.00;59205.81;5062446;28;20938;-70
2024/01/29 09:43:08;;;;;;;28.57;9.33;;;;;;;-146.29;100.00;59205.81;5034932;28;20574;-69
2024/01/29 09:45:35;;;;;;;12.90;9.03;;;;;;;-146.29;100.00;59205.81;5059673;28;20532;-69
2024/01/29 09:48:02;;;;;;;12.73;8.93;;;;;;;-146.29;100.00;59205.81;5072861;28;20428;-70
2024/01/29 09:50:28;;;;;;;10.70;9.20;;;;;;;-146.29;100.00;59205.81;5085768;28;20479;-70
2024/01/29 09:52:55;;;;;;;13.57;9.67;;;;;;;-146.29;100.00;59205.81;5093817;28;20415;-70
2024/01/29 09:55:21;;;;;;;10.13;8.73;;;;;;;-146.29;100.00;59205.81;5088430;28;20412;-70
2024/01/29 09:57:46;;;;;;;14.90;10.50;;;;;;;-146.29;100.00;59205.81;5068204;28;21007;-70
2024/01/29 10:00:12;;;;;;;15.27;9.23;;;;;;;-146.29;100.00;59205.81;5087279;28;20733;-70
2024/01/29 10:02:39;;;;;;;13.87;9.30;;;;;;;-146.29;100.00;59205.81;5087227;28;20807;-71
2024/01/29 10:05:07;;;;;;;11.97;8.80;;;;;;;-146.29;100.00;59205.81;5069178;28;20446;-71
2024/01/29 10:07:32;;;;;;;12.13;8.60;;;;;;;-146.29;100.00;59205.81;5074369;28;20428;-69
2024/01/29 10:10:01;;;;;;;12.10;8.60;;;;;;;-146.29;100.00;59205.81;5077422;28;20948;-70
2024/01/29 10:12:28;;;;;;;11.17;8.50;;;;;;;-146.29;100.00;59205.81;5081922;28;20903;-70
2024/01/29 10:14:55;;;;;;;13.63;8.90;;;;;;;-146.29;100.00;59205.81;5082310;28;20471;-71
2024/01/29 10:17:24;;;;;;;13.43;8.37;;;;;;;-146.29;100.00;59205.81;5080312;28;20460;-70
2024/01/29 10:19:50;;;;;;;17.33;8.47;;;;;;;-146.29;100.00;59205.81;5074905;28;20429;-69
2024/01/29 10:22:16;;;;;;;16.20;7.40;;;;;;;-146.29;100.00;59205.81;5083884;28;20497;-69
2024/01/29 10:24:41;;;;;;;10.63;7.73;;;;;;;-146.29;100.00;59205.81;5079513;28;20538;-69
2024/01/29 10:27:08;;;;;;;14.17;8.07;;;;;;;-146.29;100.00;59205.81;5091479;28;20452;-69
2024/01/29 10:29:48;;;;;;;15.20;8.73;;;;;;;-146.29;100.00;59205.81;5080134;28;20258;-69
2024/01/29 10:32:14;;;;;;;9.90;8.60;;;;;;;-146.29;100.00;59205.81;5081520;28;20582;-70
2024/01/29 10:34:40;;;;;;;11.83;7.90;;;;;;;-146.29;100.00;59205.81;5086489;28;20535;-69
2024/01/29 10:37:06;;;;;;;12.27;7.80;;;;;;;-146.29;100.00;59205.81;5072138;28;20199;-69
2024/01/29 10:39:34;;;;;;;12.43;7.80;;;;;;;-146.29;100.00;59205.81;5086490;28;20423;-68
2024/01/29 10:42:01;;;;;;;19.37;6.87;;;;;;;-146.29;100.00;59205.81;5094382;28;20209;-68
2024/01/29 10:44:27;;;;;;;10.53;6.27;;;;;;;-146.29;100.00;59205.81;5082562;28;20429;-68
2024/01/29 10:46:54;;;;;;;14.33;7.27;;;;;;;-146.29;100.00;59205.81;5067521;28;20421;-69
2024/01/29 10:49:20;;;;;;;11.73;6.40;;;;;;;-146.29;100.00;59205.81;5080139;28;20758;-69
2024/01/29 10:51:47;;;;;;;14.43;7.67;;;;;;;-146.29;100.00;59205.81;5089792;28;20856;-70
2024/01/29 10:54:13;;;;;;;9.07;7.13;;;;;;;-146.29;100.00;59205.81;5079191;28;20428;-70
2024/01/29 10:56:39;;;;;;;15.87;7.40;;;;;;;-146.29;100.00;59205.81;5066712;28;20423;-69
2024/01/29 10:59:05;;;;;;;9.43;6.93;;;;;;;-146.29;100.00;59205.81;5061357;28;20213;-70